createdAt,value
2019-05-12T00:00:18.766Z,58.25
2019-05-12T00:01:18.962Z,58.73
2019-05-12T00:03:11.786Z,57.59
2019-05-12T00:04:11.845Z,57.21
2019-05-12T00:06:04.851Z,57.11
2019-05-12T00:07:04.889Z,56.73
2019-05-12T00:08:58.088Z,55.40
2019-05-12T00:09:58.221Z,55.02
2019-05-12T00:11:50.925Z,52.64
2019-05-12T00:12:50.972Z,51.70
2019-05-12T00:14:43.966Z,51.51
2019-05-12T00:15:44.003Z,51.60
2019-05-12T00:17:38.724Z,52.43
2019-05-12T00:18:37.801Z,52.05
2019-05-12T00:20:30.042Z,51.29
2019-05-12T00:21:30.078Z,51.79
2019-05-12T00:23:27.793Z,51.57
2019-05-12T00:24:23.115Z,51.57
2019-05-12T00:26:16.114Z,51.10
2019-05-12T00:27:17.901Z,51.48
2019-05-12T00:29:09.137Z,50.43
2019-05-12T00:30:10.282Z,50.53
2019-05-12T00:32:02.185Z,48.91
2019-05-12T00:33:02.229Z,48.25
2019-05-12T00:34:55.218Z,48.25
2019-05-12T00:35:55.269Z,48.16
2019-05-12T00:37:48.688Z,47.87
2019-05-12T00:38:48.561Z,47.77
2019-05-12T00:40:41.307Z,47.58
2019-05-12T00:41:44.359Z,46.92
2019-05-12T00:43:34.349Z,46.64
2019-05-12T00:44:34.385Z,46.45
2019-05-12T00:46:27.859Z,46.06
2019-05-12T00:47:28.028Z,46.06
2019-05-12T00:49:20.399Z,44.93
2019-05-12T00:50:20.473Z,44.45
2019-05-12T00:52:13.459Z,43.50
2019-05-12T00:53:13.493Z,43.31
2019-05-12T00:55:07.927Z,42.46
2019-05-12T00:56:08.454Z,41.89
2019-05-12T00:57:59.527Z,42.17
2019-05-12T00:58:59.591Z,42.27
2019-05-12T01:00:52.546Z,41.79
2019-05-12T01:01:52.604Z,41.31
2019-05-12T01:03:45.600Z,40.37
2019-05-12T01:04:45.638Z,39.23
2019-05-12T01:06:38.920Z,41.41
2019-05-12T01:07:38.670Z,41.50
2019-05-12T01:09:31.682Z,40.75
2019-05-12T01:10:31.704Z,40.56
2019-05-12T01:12:24.685Z,39.70
2019-05-12T01:13:24.740Z,39.61
2019-05-12T01:15:17.890Z,39.61
2019-05-12T01:16:18.415Z,39.89
2019-05-12T01:18:10.777Z,39.59
2019-05-12T01:19:10.825Z,39.30
2019-05-12T01:21:03.796Z,38.26
2019-05-12T01:22:03.850Z,37.40
2019-05-12T01:24:03.121Z,36.65
2019-05-12T01:24:57.827Z,36.46
2019-05-12T01:26:49.889Z,35.88
2019-05-12T01:27:49.923Z,35.22
2019-05-12T01:29:42.924Z,32.84
2019-05-12T01:30:42.979Z,33.32
2019-05-12T01:32:38.087Z,32.46
2019-05-12T01:33:37.984Z,32.09
2019-05-12T01:35:28.993Z,30.28
2019-05-12T01:36:29.025Z,30.57
2019-05-12T01:38:22.029Z,29.24
2019-05-12T01:39:22.066Z,27.91
2019-05-12T01:41:15.052Z,27.44
2019-05-12T01:42:15.101Z,26.67
2019-05-12T01:44:08.787Z,24.21
2019-05-12T01:45:09.262Z,22.88
2019-05-12T01:47:01.120Z,22.78
2019-05-12T01:48:01.177Z,22.31
2019-05-12T01:49:54.187Z,21.74
2019-05-12T01:50:54.217Z,22.78
2019-05-12T01:52:47.868Z,22.02
2019-05-12T01:53:48.258Z,22.31
2019-05-12T01:55:40.255Z,19.37
2019-05-12T01:56:40.291Z,20.12
2019-05-12T01:58:33.278Z,22.69
2019-05-12T01:59:33.325Z,23.83
2019-05-12T02:01:28.102Z,24.87
2019-05-12T02:02:28.433Z,23.64
2019-05-12T02:04:19.373Z,24.87
2019-05-12T02:05:19.418Z,24.96
2019-05-12T02:07:12.904Z,24.49
2019-05-12T02:08:12.958Z,23.83
2019-05-12T02:10:05.959Z,22.50
2019-05-12T02:11:07.867Z,22.69
2019-05-12T02:12:59.557Z,21.64
2019-05-12T02:13:59.029Z,20.41
2019-05-12T02:15:52.006Z,19.08
2019-05-12T02:16:52.062Z,17.66
2019-05-12T02:18:45.063Z,17.47
2019-05-12T02:19:45.101Z,18.23
2019-05-12T02:21:38.320Z,19.18
2019-05-12T02:22:38.835Z,18.89
2019-05-12T02:24:31.119Z,19.46
2019-05-12T02:25:31.174Z,19.27
2019-05-12T02:27:24.171Z,17.75
2019-05-12T02:28:24.215Z,16.61
2019-05-12T02:30:20.226Z,16.89
2019-05-12T02:31:20.466Z,16.71
2019-05-12T02:33:10.267Z,16.71
2019-05-12T02:34:10.305Z,16.71
2019-05-12T02:36:04.768Z,16.23
2019-05-12T02:37:05.218Z,15.76
2019-05-12T02:38:56.315Z,16.42
2019-05-12T02:39:56.356Z,15.95
2019-05-12T02:41:49.350Z,18.04
2019-05-12T02:42:49.400Z,17.75
2019-05-12T02:44:44.375Z,16.80
2019-05-12T02:45:44.632Z,16.99
2019-05-12T02:47:35.396Z,17.08
2019-05-12T02:48:35.728Z,17.37
2019-05-12T02:50:28.452Z,16.89
2019-05-12T02:51:28.488Z,16.89
2019-05-12T02:53:24.579Z,16.23
2019-05-12T02:54:24.984Z,15.19
2019-05-12T02:56:15.243Z,15.47
2019-05-12T02:57:14.571Z,15.66
2019-05-12T02:59:07.578Z,16.61
2019-05-12T03:00:07.624Z,16.52
2019-05-12T03:02:00.609Z,15.66
2019-05-12T03:03:00.642Z,15.85
2019-05-12T03:04:54.880Z,16.33
2019-05-12T03:05:54.916Z,16.80
2019-05-12T03:07:47.170Z,16.42
2019-05-12T03:08:47.222Z,15.09
2019-05-12T03:10:40.223Z,14.43
2019-05-12T03:11:40.259Z,13.85
2019-05-12T03:13:34.614Z,12.91
2019-05-12T03:14:39.337Z,12.91
2019-05-12T03:16:26.299Z,15.66
2019-05-12T03:17:26.339Z,16.80
2019-05-12T03:19:19.318Z,17.75
2019-05-12T03:20:19.376Z,17.66
2019-05-12T03:22:14.138Z,17.85
2019-05-12T03:23:15.462Z,18.32
2019-05-12T03:25:15.604Z,17.66
2019-05-12T03:26:05.539Z,17.85
2019-05-12T03:27:58.447Z,17.66
2019-05-12T03:28:58.499Z,17.66
2019-05-12T03:30:56.921Z,19.18
2019-05-12T03:31:56.666Z,18.79
2019-05-12T03:33:52.217Z,18.79
2019-05-12T03:34:47.398Z,19.74
2019-05-12T03:36:41.584Z,20.03
2019-05-12T03:37:37.600Z,19.84
2019-05-12T03:39:30.600Z,19.65
2019-05-12T03:40:30.628Z,20.69
2019-05-12T03:42:25.161Z,21.08
2019-05-12T03:43:24.401Z,20.41
2019-05-12T03:45:16.685Z,21.17
2019-05-12T03:46:17.678Z,21.08
2019-05-12T03:48:09.733Z,18.70
2019-05-12T03:49:09.740Z,18.89
2019-05-12T03:51:05.437Z,19.08
2019-05-12T03:52:05.010Z,19.27
2019-05-12T03:53:55.997Z,18.13
2019-05-12T03:54:56.266Z,18.13
2019-05-12T03:56:48.792Z,16.80
2019-05-12T03:57:48.850Z,17.08
2019-05-12T03:59:44.801Z,16.42
2019-05-12T04:00:44.666Z,16.80
2019-05-12T04:02:34.862Z,16.14
2019-05-12T04:03:34.929Z,15.66
2019-05-12T04:05:27.929Z,15.86
2019-05-12T04:06:27.956Z,16.33
2019-05-12T04:08:20.932Z,16.52
2019-05-12T04:09:24.220Z,16.89
2019-05-12T04:11:14.654Z,16.43
2019-05-12T04:12:14.875Z,16.91
2019-05-12T04:14:07.054Z,17.29
2019-05-12T04:15:07.059Z,17.85
2019-05-12T04:17:00.055Z,21.08
2019-05-12T04:18:00.100Z,22.13
2019-05-12T04:19:54.952Z,21.08
2019-05-12T04:20:54.549Z,20.23
2019-05-12T04:22:46.108Z,19.76
2019-05-12T04:23:46.165Z,20.14
2019-05-12T04:25:51.291Z,19.84
2019-05-12T04:26:39.204Z,19.85
2019-05-12T04:28:35.152Z,19.74
2019-05-12T04:29:34.872Z,19.65
2019-05-12T04:31:25.286Z,19.08
2019-05-12T04:32:25.295Z,18.98
2019-05-12T04:34:19.306Z,18.70
2019-05-12T04:35:18.328Z,18.79
2019-05-12T04:37:11.317Z,17.75
2019-05-12T04:38:14.668Z,17.85
2019-05-12T04:40:05.443Z,17.18
2019-05-12T04:41:05.958Z,16.89
2019-05-12T04:42:57.391Z,16.14
2019-05-12T04:43:57.437Z,16.33
2019-05-12T04:45:50.434Z,17.18
2019-05-12T04:46:50.478Z,16.71
2019-05-12T04:48:45.272Z,16.33
2019-05-12T04:49:45.150Z,16.71
2019-05-12T04:51:36.495Z,17.75
2019-05-12T04:52:36.553Z,18.80
2019-05-12T04:54:29.519Z,21.66
2019-05-12T04:55:29.574Z,22.60
2019-05-12T04:57:25.368Z,25.26
2019-05-12T04:58:25.298Z,26.88
2019-05-12T05:00:16.123Z,27.37
2019-05-12T05:01:15.869Z,27.94
2019-05-12T05:03:08.641Z,29.93
2019-05-12T05:04:08.676Z,34.02
2019-05-12T05:06:04.506Z,35.83
2019-05-12T05:07:04.340Z,36.11
2019-05-12T05:08:54.694Z,35.65
2019-05-12T05:09:55.742Z,37.82
2019-05-12T05:11:47.778Z,40.41
2019-05-12T05:12:47.812Z,40.22
2019-05-12T05:14:40.804Z,41.55
2019-05-12T05:15:40.852Z,41.46
2019-05-12T05:17:34.728Z,40.69
2019-05-12T05:18:34.501Z,42.97
2019-05-12T05:20:26.908Z,41.46
2019-05-12T05:21:26.940Z,43.07
2019-05-12T05:23:19.934Z,44.97
2019-05-12T05:24:19.969Z,45.26
2019-05-12T05:26:22.130Z,45.07
2019-05-12T05:27:13.362Z,44.68
2019-05-12T05:29:06.015Z,46.49
2019-05-12T05:30:06.039Z,46.78
2019-05-12T05:31:59.017Z,47.44
2019-05-12T05:32:59.070Z,48.42
2019-05-12T05:34:57.585Z,50.79
2019-05-12T05:35:54.202Z,48.90
2019-05-12T05:37:45.089Z,48.80
2019-05-12T05:38:45.146Z,47.37
2019-05-12T05:40:38.144Z,49.85
2019-05-12T05:41:40.103Z,50.99
2019-05-12T05:43:33.224Z,51.84
2019-05-12T05:44:34.802Z,52.51
2019-05-12T05:46:24.233Z,54.89
2019-05-12T05:47:25.676Z,53.46
2019-05-12T05:49:17.271Z,57.26
2019-05-12T05:50:18.349Z,56.44
2019-05-12T05:52:10.288Z,56.82
2019-05-12T05:53:17.958Z,59.29
2019-05-12T05:55:05.883Z,59.48
2019-05-12T05:56:04.037Z,58.22
2019-05-12T05:57:59.758Z,59.86
2019-05-12T05:58:56.422Z,60.34
2019-05-12T06:00:54.751Z,59.48
2019-05-12T06:01:51.813Z,59.39
2019-05-12T06:03:44.121Z,58.53
2019-05-12T06:04:45.454Z,58.53
2019-05-12T06:06:35.499Z,61.67
2019-05-12T06:07:39.095Z,60.24
2019-05-12T06:09:28.513Z,56.92
2019-05-12T06:10:35.301Z,60.82
2019-05-12T06:12:23.887Z,61.77
2019-05-12T06:13:29.962Z,60.63
2019-05-12T06:15:14.628Z,61.61
2019-05-12T06:16:20.717Z,63.42
2019-05-12T06:18:07.640Z,63.60
2019-05-12T06:19:07.689Z,63.13
2019-05-12T06:21:00.706Z,60.94
2019-05-12T06:22:00.731Z,60.18
2019-05-12T06:23:54.078Z,61.80
2019-05-12T06:24:57.491Z,61.61
2019-05-12T06:26:56.855Z,61.04
2019-05-12T06:27:51.023Z,68.82
2019-05-12T06:29:39.796Z,91.35
2019-05-12T06:30:44.248Z,87.56
2019-05-12T06:32:33.651Z,87.34
2019-05-12T06:33:36.062Z,88.29
2019-05-12T06:35:25.875Z,88.29
2019-05-12T06:36:27.371Z,84.69
2019-05-12T06:38:18.940Z,75.20
2019-05-12T06:39:20.595Z,71.21
2019-05-12T06:41:20.250Z,71.23
2019-05-12T06:42:16.070Z,75.09
2019-05-12T06:44:08.877Z,82.51
2019-05-12T06:45:05.073Z,82.98
2019-05-12T06:47:03.309Z,83.42
2019-05-12T06:47:58.120Z,84.76
2019-05-12T06:49:56.474Z,86.82
2019-05-12T06:50:53.392Z,87.68
2019-05-12T06:52:48.860Z,87.09
2019-05-12T06:53:44.453Z,83.56
2019-05-12T06:55:39.342Z,75.12
2019-05-12T06:56:37.277Z,75.18
2019-05-12T06:58:32.111Z,65.52
2019-05-12T06:59:30.324Z,64.15
2019-05-12T07:01:24.204Z,65.11
2019-05-12T07:02:24.498Z,62.61
2019-05-12T07:04:16.374Z,59.06
2019-05-12T07:05:16.435Z,59.70
2019-05-12T07:07:09.944Z,60.63
2019-05-12T07:08:09.991Z,62.49
2019-05-12T07:10:11.739Z,67.21
2019-05-12T07:11:05.957Z,69.57
2019-05-12T07:13:01.822Z,72.28
2019-05-12T07:14:04.507Z,74.66
2019-05-12T07:15:49.105Z,79.31
2019-05-12T07:16:55.325Z,81.51
2019-05-12T07:18:43.772Z,80.07
2019-05-12T07:19:43.960Z,81.32
2019-05-12T07:21:35.182Z,83.57
2019-05-12T07:22:43.819Z,83.86
2019-05-12T07:24:28.248Z,84.43
2019-05-12T07:25:31.150Z,84.81
2019-05-12T07:27:33.770Z,77.36
2019-05-12T07:28:23.557Z,66.26
2019-05-12T07:30:14.343Z,57.55
2019-05-12T07:31:14.385Z,58.74
2019-05-12T07:33:07.381Z,60.25
2019-05-12T07:34:07.957Z,57.55
2019-05-12T07:36:01.987Z,52.06
2019-05-12T07:37:00.519Z,48.83
2019-05-12T07:38:58.108Z,44.98
2019-05-12T07:39:53.909Z,43.66
2019-05-12T07:41:51.010Z,47.72
2019-05-12T07:42:46.622Z,51.31
2019-05-12T07:44:41.246Z,52.18
2019-05-12T07:45:39.688Z,49.24
2019-05-12T07:47:33.158Z,49.89
2019-05-12T07:48:33.517Z,47.45
2019-05-12T07:50:27.346Z,44.05
2019-05-12T07:51:30.235Z,43.01
2019-05-12T07:53:18.817Z,41.58
2019-05-12T07:54:18.882Z,41.11
2019-05-12T07:56:14.310Z,40.38
2019-05-12T07:57:17.182Z,39.29
2019-05-12T07:59:04.956Z,37.67
2019-05-12T08:00:05.047Z,40.05
2019-05-12T08:01:58.056Z,42.66
2019-05-12T08:02:58.130Z,44.13
2019-05-12T08:04:51.141Z,46.38
2019-05-12T08:05:56.355Z,47.99
2019-05-12T08:07:44.843Z,48.88
2019-05-12T08:08:50.941Z,51.51
2019-05-12T08:10:37.780Z,54.90
2019-05-12T08:11:39.010Z,51.19
2019-05-12T08:13:36.244Z,46.83
2019-05-12T08:14:33.051Z,43.64
2019-05-12T08:16:25.700Z,39.34
2019-05-12T08:17:24.603Z,40.42
2019-05-12T08:19:23.699Z,45.95
2019-05-12T08:20:17.080Z,48.49
2019-05-12T08:22:10.086Z,53.22
2019-05-12T08:23:10.676Z,54.91
2019-05-12T08:25:04.146Z,56.49
2019-05-12T08:26:11.769Z,57.13
2019-05-12T08:28:11.096Z,58.37
2019-05-12T08:28:56.285Z,58.81
2019-05-12T08:30:52.161Z,52.95
2019-05-12T08:31:49.318Z,54.08
2019-05-12T08:33:43.691Z,54.89
2019-05-12T08:34:43.755Z,55.53
2019-05-12T08:36:35.390Z,57.13
2019-05-12T08:37:35.442Z,58.56
2019-05-12T08:39:28.432Z,53.74
2019-05-12T08:40:28.503Z,49.70
2019-05-12T08:42:23.901Z,42.99
2019-05-12T08:43:23.857Z,40.81
2019-05-12T08:45:23.967Z,36.99
2019-05-12T08:46:15.692Z,36.41
2019-05-12T08:48:10.187Z,35.96
2019-05-12T08:49:07.698Z,35.38
2019-05-12T08:51:05.363Z,38.71
2019-05-12T08:52:00.782Z,40.78
2019-05-12T08:54:02.156Z,44.55
2019-05-12T08:54:53.919Z,45.97
2019-05-12T08:56:51.179Z,44.89
2019-05-12T08:57:49.614Z,46.45
2019-05-12T08:59:39.958Z,49.74
2019-05-12T09:00:46.407Z,49.99
2019-05-12T09:02:34.414Z,50.15
2019-05-12T09:03:33.542Z,47.94
2019-05-12T09:05:33.687Z,45.10
2019-05-12T09:06:26.146Z,46.86
2019-05-12T09:08:19.144Z,43.64
2019-05-12T09:09:19.221Z,45.90
2019-05-12T09:11:13.888Z,45.32
2019-05-12T09:12:13.990Z,43.75
2019-05-12T09:14:05.959Z,41.86
2019-05-12T09:15:08.045Z,40.86
2019-05-12T09:17:02.706Z,37.98
2019-05-12T09:17:58.429Z,38.43
2019-05-12T09:19:56.626Z,40.72
2019-05-12T09:20:53.486Z,40.59
2019-05-12T09:22:44.539Z,42.82
2019-05-12T09:23:45.625Z,45.42
2019-05-12T09:25:39.312Z,47.03
2019-05-12T09:26:37.662Z,47.87
2019-05-12T09:28:44.375Z,48.64
2019-05-12T09:29:30.738Z,50.18
2019-05-12T09:31:25.616Z,48.90
2019-05-12T09:32:23.807Z,49.96
2019-05-12T09:34:16.882Z,49.82
2019-05-12T09:35:17.009Z,50.87
2019-05-12T09:37:09.882Z,51.35
2019-05-12T09:38:11.357Z,51.04
2019-05-12T09:40:04.612Z,51.23
2019-05-12T09:41:05.246Z,51.23
2019-05-12T09:43:00.217Z,51.01
2019-05-12T09:43:56.056Z,51.20
2019-05-12T09:45:54.024Z,52.16
2019-05-12T09:46:49.123Z,52.55
2019-05-12T09:48:46.936Z,51.37
2019-05-12T09:49:44.302Z,51.28
2019-05-12T09:51:41.444Z,52.97
2019-05-12T09:52:35.239Z,52.69
2019-05-12T09:54:35.561Z,52.91
2019-05-12T09:55:28.299Z,53.67
2019-05-12T09:57:21.284Z,51.73
2019-05-12T09:58:23.661Z,50.99
2019-05-12T10:00:14.360Z,51.28
2019-05-12T10:01:14.403Z,51.92
2019-05-12T10:03:08.686Z,53.67
2019-05-12T10:04:13.668Z,54.44
2019-05-12T10:06:00.462Z,53.74
2019-05-12T10:07:00.507Z,54.50
2019-05-12T10:08:54.873Z,54.28
2019-05-12T10:09:55.008Z,55.51
2019-05-12T10:11:51.884Z,55.41
2019-05-12T10:12:50.504Z,55.41
2019-05-12T10:14:40.772Z,57.26
2019-05-12T10:15:39.673Z,56.52
2019-05-12T10:17:33.982Z,54.32
2019-05-12T10:18:33.628Z,54.03
2019-05-12T10:20:29.130Z,54.41
2019-05-12T10:21:25.774Z,53.74
2019-05-12T10:23:22.671Z,53.36
2019-05-12T10:24:18.826Z,55.08
2019-05-12T10:26:14.629Z,53.74
2019-05-12T10:27:13.783Z,53.74
2019-05-12T10:29:16.278Z,52.91
2019-05-12T10:30:11.948Z,53.26
2019-05-12T10:31:57.920Z,53.83
2019-05-12T10:32:57.979Z,53.93
2019-05-12T10:34:51.250Z,54.67
2019-05-12T10:35:51.037Z,55.24
2019-05-12T10:37:47.151Z,55.63
2019-05-12T10:38:44.088Z,55.44
2019-05-12T10:40:37.120Z,55.02
2019-05-12T10:41:37.162Z,55.12
2019-05-12T10:43:30.179Z,56.75
2019-05-12T10:44:36.370Z,56.17
2019-05-12T10:46:26.808Z,55.12
2019-05-12T10:47:23.897Z,55.24
2019-05-12T10:49:16.255Z,53.23
2019-05-12T10:50:16.318Z,52.28
2019-05-12T10:52:09.324Z,53.83
2019-05-12T10:53:09.724Z,52.87
2019-05-12T10:55:04.336Z,54.28
2019-05-12T10:56:02.469Z,54.48
2019-05-12T10:58:01.597Z,54.77
2019-05-12T10:58:55.515Z,53.83
2019-05-12T11:00:48.549Z,53.74
2019-05-12T11:01:49.202Z,53.07
2019-05-12T11:03:43.051Z,52.78
2019-05-12T11:04:43.924Z,52.78
2019-05-12T11:06:39.706Z,51.54
2019-05-12T11:07:34.664Z,51.92
2019-05-12T11:09:31.603Z,53.86
2019-05-12T11:10:27.705Z,52.42
2019-05-12T11:12:25.169Z,51.65
2019-05-12T11:13:20.754Z,52.91
2019-05-12T11:15:13.901Z,52.97
2019-05-12T11:16:16.695Z,53.81
2019-05-12T11:18:06.818Z,52.56
2019-05-12T11:19:10.379Z,52.66
2019-05-12T11:20:59.887Z,52.85
2019-05-12T11:22:00.088Z,52.66
2019-05-12T11:23:54.345Z,53.33
2019-05-12T11:24:55.690Z,54.57
2019-05-12T11:26:45.968Z,54.03
2019-05-12T11:27:46.020Z,53.64
2019-05-12T11:29:46.026Z,55.46
2019-05-12T11:30:39.067Z,55.21
2019-05-12T11:32:34.885Z,53.07
2019-05-12T11:33:34.012Z,51.63
2019-05-12T11:35:25.127Z,52.50
2019-05-12T11:36:25.170Z,51.73
2019-05-12T11:38:18.163Z,51.03
2019-05-12T11:39:18.425Z,51.34
2019-05-12T11:41:16.176Z,51.73
2019-05-12T11:42:13.517Z,52.59
2019-05-12T11:44:04.246Z,52.40
2019-05-12T11:45:04.310Z,51.44
2019-05-12T11:46:57.323Z,51.44
2019-05-12T11:48:05.262Z,51.25
2019-05-12T11:49:50.344Z,51.15
2019-05-12T11:50:51.359Z,51.06
2019-05-12T11:52:46.070Z,51.15
2019-05-12T11:53:44.489Z,50.96
2019-05-12T11:55:36.479Z,49.45
2019-05-12T11:56:40.367Z,51.75
2019-05-12T11:58:29.523Z,50.32
2019-05-12T11:59:29.563Z,49.36
2019-05-12T12:01:24.325Z,49.48
2019-05-12T12:02:26.311Z,49.38
2019-05-12T12:04:15.620Z,49.60
2019-05-12T12:05:15.658Z,49.31
2019-05-12T12:07:09.153Z,49.48
2019-05-12T12:08:09.220Z,49.31
2019-05-12T12:10:03.716Z,49.57
2019-05-12T12:11:03.952Z,50.17
2019-05-12T12:12:55.285Z,51.04
2019-05-12T12:14:00.242Z,52.28
2019-05-12T12:15:48.350Z,50.17
2019-05-12T12:16:50.414Z,50.75
2019-05-12T12:18:46.682Z,49.31
2019-05-12T12:19:46.400Z,48.74
2019-05-12T12:21:35.167Z,48.64
2019-05-12T12:22:34.791Z,49.29
2019-05-12T12:24:31.367Z,49.29
2019-05-12T12:25:27.676Z,50.12
2019-05-12T12:27:20.681Z,51.18
2019-05-12T12:28:20.728Z,51.08
2019-05-12T12:30:19.440Z,51.15
2019-05-12T12:31:13.773Z,51.85
2019-05-12T12:33:06.821Z,52.62
2019-05-12T12:34:06.840Z,52.91
2019-05-12T12:36:00.863Z,52.71
2019-05-12T12:36:59.892Z,52.69
2019-05-12T12:38:53.757Z,52.42
2019-05-12T12:39:53.652Z,52.40
2019-05-12T12:41:56.060Z,52.40
2019-05-12T12:42:47.326Z,52.78
2019-05-12T12:44:39.536Z,53.74
2019-05-12T12:45:40.594Z,53.91
2019-05-12T12:47:38.029Z,54.57
2019-05-12T12:48:33.378Z,54.57
2019-05-12T12:50:30.347Z,55.24
2019-05-12T12:51:25.662Z,54.57
2019-05-12T12:53:18.668Z,55.15
2019-05-12T12:54:18.710Z,55.24
2019-05-12T12:56:18.089Z,55.15
2019-05-12T12:57:13.621Z,56.01
2019-05-12T12:59:10.364Z,56.75
2019-05-12T13:00:04.815Z,56.01
2019-05-12T13:01:59.213Z,56.68
2019-05-12T13:02:57.859Z,56.68
2019-05-12T13:04:50.869Z,56.59
2019-05-12T13:05:50.908Z,56.39
2019-05-12T13:07:45.400Z,56.49
2019-05-12T13:08:45.460Z,57.26
2019-05-12T13:10:40.676Z,58.18
2019-05-12T13:11:38.732Z,58.37
2019-05-12T13:13:31.534Z,58.76
2019-05-12T13:14:36.486Z,59.23
2019-05-12T13:16:24.542Z,59.23
2019-05-12T13:17:27.146Z,61.05
2019-05-12T13:19:17.620Z,60.29
2019-05-12T13:20:17.687Z,59.23
2019-05-12T13:22:17.114Z,58.56
2019-05-12T13:23:10.783Z,58.47
2019-05-12T13:25:08.441Z,57.51
2019-05-12T13:26:04.285Z,58.50
2019-05-12T13:28:01.659Z,57.92
2019-05-12T13:28:56.827Z,57.26
2019-05-12T13:30:49.827Z,55.24
2019-05-12T13:31:49.887Z,54.57
2019-05-12T13:33:44.261Z,55.15
2019-05-12T13:34:43.148Z,55.34
2019-05-12T13:36:39.217Z,55.56
2019-05-12T13:37:43.684Z,55.63
2019-05-12T13:39:33.561Z,55.18
2019-05-12T13:40:37.618Z,54.41
2019-05-12T13:42:24.663Z,55.36
2019-05-12T13:43:24.694Z,55.18
2019-05-12T13:45:17.704Z,55.36
2019-05-12T13:46:17.736Z,54.70
2019-05-12T13:48:15.802Z,55.36
2019-05-12T13:49:10.856Z,56.04
2019-05-12T13:51:08.310Z,56.13
2019-05-12T13:52:04.291Z,55.75
2019-05-12T13:53:56.845Z,56.32
2019-05-12T13:55:00.147Z,57.09
2019-05-12T13:56:49.873Z,58.59
2019-05-12T13:57:53.165Z,58.98
2019-05-12T13:59:43.525Z,59.94
2019-05-12T14:00:50.748Z,60.22
2019-05-12T14:02:36.052Z,60.32
2019-05-12T14:03:39.848Z,60.89
2019-05-12T14:05:29.012Z,61.18
2019-05-12T14:06:31.720Z,61.18
2019-05-12T14:08:23.777Z,60.89
2019-05-12T14:09:23.880Z,60.61
2019-05-12T14:11:18.580Z,60.32
2019-05-12T14:12:15.175Z,60.22
2019-05-12T14:14:11.269Z,60.51
2019-05-12T14:15:08.231Z,60.41
2019-05-12T14:17:01.245Z,61.47
2019-05-12T14:18:03.290Z,61.85
2019-05-12T14:19:54.285Z,61.76
2019-05-12T14:20:58.850Z,61.28
2019-05-12T14:22:47.351Z,60.89
2019-05-12T14:23:47.400Z,60.22
2019-05-12T14:25:40.747Z,59.55
2019-05-12T14:26:45.512Z,59.65
2019-05-12T14:28:33.700Z,59.75
2019-05-12T14:29:33.515Z,60.22
2019-05-12T14:31:30.600Z,59.75
2019-05-12T14:32:26.553Z,59.75
2019-05-12T14:34:21.072Z,59.11
2019-05-12T14:35:19.619Z,59.11
2019-05-12T14:37:14.031Z,59.30
2019-05-12T14:38:14.193Z,59.58
2019-05-12T14:40:05.731Z,58.72
2019-05-12T14:41:10.383Z,58.72
2019-05-12T14:42:58.737Z,58.72
2019-05-12T14:44:03.448Z,58.34
2019-05-12T14:45:53.904Z,57.19
2019-05-12T14:46:53.475Z,57.64
2019-05-12T14:48:48.504Z,59.17
2019-05-12T14:49:44.851Z,58.79
2019-05-12T14:51:37.845Z,58.98
2019-05-12T14:52:38.079Z,58.47
2019-05-12T14:54:30.909Z,59.05
2019-05-12T14:55:30.947Z,59.05
2019-05-12T14:57:24.344Z,60.10
2019-05-12T14:58:24.047Z,61.34
2019-05-12T15:00:20.879Z,61.57
2019-05-12T15:01:17.044Z,61.44
2019-05-12T15:03:15.465Z,62.68
2019-05-12T15:04:10.088Z,62.59
2019-05-12T15:06:03.801Z,63.35
2019-05-12T15:07:05.969Z,63.26
2019-05-12T15:08:56.124Z,63.16
2019-05-12T15:10:02.369Z,63.93
2019-05-12T15:11:49.196Z,64.69
2019-05-12T15:12:49.292Z,63.93
2019-05-12T15:14:43.903Z,63.54
2019-05-12T15:15:44.080Z,63.57
2019-05-12T15:17:35.306Z,62.40
2019-05-12T15:18:39.484Z,60.00
2019-05-12T15:20:28.493Z,58.95
2019-05-12T15:24:55.167Z,58.95
2019-05-12T15:25:53.696Z,60.48
2019-05-12T15:27:48.153Z,59.05
2019-05-12T15:28:45.035Z,59.91
2019-05-12T15:30:37.930Z,60.86
2019-05-12T15:31:37.962Z,60.38
2019-05-12T15:33:33.516Z,60.48
2019-05-12T15:34:31.007Z,60.77
2019-05-12T15:36:24.453Z,60.58
2019-05-12T15:37:28.929Z,61.05
2019-05-12T15:39:17.040Z,60.77
2019-05-12T15:40:17.104Z,61.25
2019-05-12T15:42:10.126Z,62.11
2019-05-12T15:43:10.478Z,62.40
2019-05-12T15:45:06.579Z,62.20
2019-05-12T15:46:03.193Z,61.91
2019-05-12T15:47:56.209Z,61.25
2019-05-12T15:48:56.253Z,61.72
2019-05-12T15:50:49.269Z,60.67
2019-05-12T15:51:53.990Z,60.48
2019-05-12T15:53:44.587Z,61.34
2019-05-12T15:54:47.137Z,61.54
2019-05-12T15:56:35.345Z,61.63
2019-05-12T15:57:35.402Z,61.63
2019-05-12T15:59:28.394Z,60.19
2019-05-12T16:00:28.446Z,59.52
2019-05-12T16:02:23.557Z,60.10
2019-05-12T16:03:23.566Z,58.69
2019-05-12T16:05:19.695Z,59.27
2019-05-12T16:06:14.902Z,59.45
2019-05-12T16:08:07.546Z,58.50
2019-05-12T16:09:07.584Z,59.08
2019-05-12T16:11:00.616Z,57.73
2019-05-12T16:12:00.657Z,58.31
2019-05-12T16:13:59.043Z,57.35
2019-05-12T16:14:54.103Z,57.19
2019-05-12T16:16:47.147Z,57.45
2019-05-12T16:17:46.752Z,58.59
2019-05-12T16:19:39.761Z,59.45
2019-05-12T16:20:39.798Z,59.36
2019-05-12T16:22:37.275Z,60.51
2019-05-12T16:23:34.168Z,60.22
2019-05-12T16:25:29.517Z,59.27
2019-05-12T16:26:25.898Z,59.36
2019-05-12T16:28:23.365Z,60.32
2019-05-12T16:29:18.942Z,60.89
2019-05-12T16:31:14.265Z,61.37
2019-05-12T16:32:23.820Z,60.67
2019-05-12T16:34:06.047Z,60.29
2019-05-12T16:35:07.433Z,59.91
2019-05-12T16:36:58.040Z,58.86
2019-05-12T16:37:58.079Z,59.14
2019-05-12T16:39:51.066Z,59.23
2019-05-12T16:40:51.124Z,59.14
2019-05-12T16:42:52.651Z,59.05
2019-05-12T16:43:44.325Z,59.14
2019-05-12T16:45:37.161Z,59.52
2019-05-12T16:46:37.225Z,59.43
2019-05-12T16:48:33.242Z,59.91
2019-05-12T16:49:33.260Z,59.14
2019-05-12T16:51:23.854Z,59.33
2019-05-12T16:52:24.382Z,58.86
2019-05-12T16:54:16.310Z,58.28
2019-05-12T16:55:16.365Z,58.37
2019-05-12T16:57:14.570Z,59.01
2019-05-12T16:58:09.429Z,59.30
2019-05-12T17:00:06.875Z,59.20
2019-05-12T17:01:03.827Z,59.49
2019-05-12T17:02:57.912Z,60.06
2019-05-12T17:03:55.548Z,60.35
2019-05-12T17:05:50.057Z,59.88
2019-05-12T17:06:48.568Z,59.49
2019-05-12T17:08:43.692Z,59.97
2019-05-12T17:09:43.373Z,60.06
2019-05-12T17:11:37.269Z,59.01
2019-05-12T17:12:37.073Z,59.59
2019-05-12T17:14:28.713Z,59.88
2019-05-12T17:15:27.705Z,59.88
2019-05-12T17:17:21.246Z,59.30
2019-05-12T17:18:20.752Z,59.97
2019-05-12T17:20:14.071Z,59.97
2019-05-12T17:21:14.438Z,60.55
2019-05-12T17:23:06.780Z,61.51
2019-05-12T17:24:06.839Z,61.98
2019-05-12T17:25:59.900Z,62.74
2019-05-12T17:26:59.892Z,62.74
2019-05-12T17:28:53.793Z,62.77
2019-05-12T17:29:54.131Z,63.16
2019-05-12T17:31:45.938Z,63.93
2019-05-12T17:32:58.089Z,63.64
2019-05-12T17:34:40.258Z,62.20
2019-05-12T17:35:39.037Z,61.34
2019-05-12T17:37:38.884Z,59.62
2019-05-12T17:38:34.087Z,58.63
2019-05-12T17:40:25.098Z,58.34
2019-05-12T17:41:25.132Z,58.83
2019-05-12T17:43:18.126Z,60.06
2019-05-12T17:44:18.182Z,60.16
2019-05-12T17:46:15.022Z,59.88
2019-05-12T17:47:14.824Z,59.78
2019-05-12T17:49:04.234Z,60.06
2019-05-12T17:50:08.453Z,59.59
2019-05-12T17:51:57.399Z,58.54
2019-05-12T17:53:00.162Z,59.11
2019-05-12T17:55:14.694Z,58.32
2019-05-12T17:56:13.915Z,58.12
2019-05-12T17:58:05.601Z,58.51
2019-05-12T17:59:05.621Z,58.80
2019-05-12T18:00:58.516Z,58.03
2019-05-12T18:01:58.563Z,58.51
2019-05-12T18:03:53.549Z,58.22
2019-05-12T18:04:53.466Z,58.41
2019-05-12T18:06:44.592Z,58.38
2019-05-12T18:07:44.920Z,58.51
2019-05-12T18:09:37.663Z,58.86
2019-05-12T18:10:39.574Z,59.72
2019-05-12T18:12:36.691Z,59.53
2019-05-12T18:13:30.741Z,59.81
2019-05-12T18:15:32.379Z,59.91
2019-05-12T18:16:24.888Z,59.34
2019-05-12T18:18:17.478Z,59.24
2019-05-12T18:20:57.804Z,59.05
2019-05-12T18:22:03.399Z,58.95
2019-05-12T18:23:50.879Z,59.15
2019-05-12T18:24:51.011Z,59.24
2019-05-12T18:26:47.142Z,59.50
2019-05-12T18:27:50.374Z,59.31
2019-05-12T18:29:36.980Z,60.27
2019-05-12T18:30:36.999Z,59.88
2019-05-12T18:32:29.985Z,60.55
2019-05-12T18:33:34.167Z,60.64
2019-05-12T18:35:23.051Z,61.32
2019-05-12T18:36:23.620Z,60.17
2019-05-12T18:38:23.064Z,61.13